sensor_id;sensor_type;location;lat;lon;timestamp;P1;durP1;ratioP1;P2;durP2;ratioP2
18217;SDS011;9234;49.344;11.120;2023-05-10T00:01:51;3.63;;;3.33;;
18217;SDS011;9234;49.344;11.120;2023-05-10T00:04:19;4.40;;;4.00;;
18217;SDS011;9234;49.344;11.120;2023-05-10T00:06:47;4.30;;;3.88;;
18217;SDS011;9234;49.344;11.120;2023-05-10T00:09:15;4.35;;;3.92;;
18217;SDS011;9234;49.344;11.120;2023-05-10T00:11:45;5.20;;;4.25;;
18217;SDS011;9234;49.344;11.120;2023-05-10T00:14:13;5.63;;;4.60;;
18217;SDS011;9234;49.344;11.120;2023-05-10T00:16:41;5.50;;;4.20;;
18217;SDS011;9234;49.344;11.120;2023-05-10T00:19:09;5.07;;;4.50;;
18217;SDS011;9234;49.344;11.120;2023-05-10T00:21:38;6.25;;;5.45;;
18217;SDS011;9234;49.344;11.120;2023-05-10T00:24:06;6.18;;;5.50;;
18217;SDS011;9234;49.344;11.120;2023-05-10T00:26:34;5.65;;;5.05;;
18217;SDS011;9234;49.344;11.120;2023-05-10T00:29:04;6.13;;;5.53;;
18217;SDS011;9234;49.344;11.120;2023-05-10T00:31:32;5.85;;;5.22;;
18217;SDS011;9234;49.344;11.120;2023-05-10T00:34:00;6.47;;;5.47;;
18217;SDS011;9234;49.344;11.120;2023-05-10T00:36:28;7.90;;;5.38;;
18217;SDS011;9234;49.344;11.120;2023-05-10T00:38:57;6.00;;;5.40;;
18217;SDS011;9234;49.344;11.120;2023-05-10T00:41:25;6.65;;;6.05;;
18217;SDS011;9234;49.344;11.120;2023-05-10T00:43:53;6.80;;;6.20;;
18217;SDS011;9234;49.344;11.120;2023-05-10T00:46:23;7.22;;;6.05;;
18217;SDS011;9234;49.344;11.120;2023-05-10T00:48:53;6.57;;;6.03;;
18217;SDS011;9234;49.344;11.120;2023-05-10T00:51:22;6.85;;;6.25;;
18217;SDS011;9234;49.344;11.120;2023-05-10T00:53:50;8.90;;;7.07;;
18217;SDS011;9234;49.344;11.120;2023-05-10T00:56:19;7.35;;;6.65;;
18217;SDS011;9234;49.344;11.120;2023-05-10T00:58:49;7.40;;;6.60;;
18217;SDS011;9234;49.344;11.120;2023-05-10T01:01:17;7.80;;;6.90;;
18217;SDS011;9234;49.344;11.120;2023-05-10T01:03:48;7.38;;;6.65;;
18217;SDS011;9234;49.344;11.120;2023-05-10T01:06:16;9.50;;;6.82;;
18217;SDS011;9234;49.344;11.120;2023-05-10T01:08:45;8.57;;;5.82;;
18217;SDS011;9234;49.344;11.120;2023-05-10T01:11:14;7.57;;;6.45;;
18217;SDS011;9234;49.344;11.120;2023-05-10T01:13:43;6.70;;;6.00;;
18217;SDS011;9234;49.344;11.120;2023-05-10T01:16:22;6.75;;;6.18;;
18217;SDS011;9234;49.344;11.120;2023-05-10T01:18:55;8.10;;;6.55;;
18217;SDS011;9234;49.344;11.120;2023-05-10T01:21:27;7.55;;;6.60;;
18217;SDS011;9234;49.344;11.120;2023-05-10T01:24:11;7.22;;;6.60;;
18217;SDS011;9234;49.344;11.120;2023-05-10T01:27:31;7.20;;;6.53;;
18217;SDS011;9234;49.344;11.120;2023-05-10T01:33:56;8.52;;;6.90;;
18217;SDS011;9234;49.344;11.120;2023-05-10T01:36:35;9.18;;;8.25;;
18217;SDS011;9234;49.344;11.120;2023-05-10T01:39:14;8.45;;;7.55;;
18217;SDS011;9234;49.344;11.120;2023-05-10T01:41:52;8.57;;;7.78;;
18217;SDS011;9234;49.344;11.120;2023-05-10T01:44:31;8.60;;;7.70;;
18217;SDS011;9234;49.344;11.120;2023-05-10T01:47:07;9.18;;;7.80;;
18217;SDS011;9234;49.344;11.120;2023-05-10T01:49:43;8.00;;;7.13;;
18217;SDS011;9234;49.344;11.120;2023-05-10T01:52:16;8.55;;;7.68;;
18217;SDS011;9234;49.344;11.120;2023-05-10T01:54:49;8.88;;;7.45;;
18217;SDS011;9234;49.344;11.120;2023-05-10T01:57:24;9.38;;;8.48;;
18217;SDS011;9234;49.344;11.120;2023-05-10T01:59:58;9.25;;;8.30;;
18217;SDS011;9234;49.344;11.120;2023-05-10T02:02:40;8.63;;;7.72;;
18217;SDS011;9234;49.344;11.120;2023-05-10T02:05:14;8.68;;;7.78;;
18217;SDS011;9234;49.344;11.120;2023-05-10T02:07:44;9.55;;;8.63;;
18217;SDS011;9234;49.344;11.120;2023-05-10T02:10:14;9.70;;;8.80;;
18217;SDS011;9234;49.344;11.120;2023-05-10T02:12:46;9.20;;;8.30;;
18217;SDS011;9234;49.344;11.120;2023-05-10T02:15:18;10.68;;;9.57;;
18217;SDS011;9234;49.344;11.120;2023-05-10T02:17:51;8.77;;;7.95;;
18217;SDS011;9234;49.344;11.120;2023-05-10T02:20:24;10.55;;;7.95;;
18217;SDS011;9234;49.344;11.120;2023-05-10T02:22:54;9.13;;;8.25;;
18217;SDS011;9234;49.344;11.120;2023-05-10T02:25:25;9.02;;;8.07;;
18217;SDS011;9234;49.344;11.120;2023-05-10T02:27:56;9.18;;;8.23;;
18217;SDS011;9234;49.344;11.120;2023-05-10T02:30:28;9.18;;;8.20;;
18217;SDS011;9234;49.344;11.120;2023-05-10T02:32:59;9.02;;;8.13;;
18217;SDS011;9234;49.344;11.120;2023-05-10T02:35:32;10.35;;;8.18;;
18217;SDS011;9234;49.344;11.120;2023-05-10T02:38:02;10.05;;;8.88;;
18217;SDS011;9234;49.344;11.120;2023-05-10T02:40:31;12.27;;;8.85;;
18217;SDS011;9234;49.344;11.120;2023-05-10T02:43:01;11.02;;;8.93;;
18217;SDS011;9234;49.344;11.120;2023-05-10T02:45:31;9.13;;;8.23;;
18217;SDS011;9234;49.344;11.120;2023-05-10T02:48:02;9.55;;;8.65;;
18217;SDS011;9234;49.344;11.120;2023-05-10T02:50:33;10.32;;;8.55;;
18217;SDS011;9234;49.344;11.120;2023-05-10T02:53:05;9.82;;;8.02;;
18217;SDS011;9234;49.344;11.120;2023-05-10T02:55:42;9.93;;;8.05;;
18217;SDS011;9234;49.344;11.120;2023-05-10T02:58:18;10.23;;;9.10;;
18217;SDS011;9234;49.344;11.120;2023-05-10T03:00:47;9.68;;;8.77;;
18217;SDS011;9234;49.344;11.120;2023-05-10T03:03:15;10.52;;;8.82;;
18217;SDS011;9234;49.344;11.120;2023-05-10T03:05:44;9.30;;;8.15;;
18217;SDS011;9234;49.344;11.120;2023-05-10T03:08:13;10.20;;;9.27;;
18217;SDS011;9234;49.344;11.120;2023-05-10T03:10:43;9.13;;;8.23;;
18217;SDS011;9234;49.344;11.120;2023-05-10T03:13:44;9.02;;;7.93;;
18217;SDS011;9234;49.344;11.120;2023-05-10T03:16:32;10.38;;;9.25;;
18217;SDS011;9234;49.344;11.120;2023-05-10T03:19:11;10.18;;;9.18;;
18217;SDS011;9234;49.344;11.120;2023-05-10T03:21:49;7.00;;;6.35;;
18217;SDS011;9234;49.344;11.120;2023-05-10T03:24:21;4.75;;;4.35;;
18217;SDS011;9234;49.344;11.120;2023-05-10T03:26:56;5.22;;;4.72;;
18217;SDS011;9234;49.344;11.120;2023-05-10T03:29:29;2.72;;;2.53;;
18217;SDS011;9234;49.344;11.120;2023-05-10T03:31:59;3.92;;;3.33;;
18217;SDS011;9234;49.344;11.120;2023-05-10T03:34:29;2.28;;;2.08;;
18217;SDS011;9234;49.344;11.120;2023-05-10T03:36:59;1.95;;;1.83;;
18217;SDS011;9234;49.344;11.120;2023-05-10T03:39:30;4.32;;;1.52;;
18217;SDS011;9234;49.344;11.120;2023-05-10T03:41:59;2.65;;;1.40;;
18217;SDS011;9234;49.344;11.120;2023-05-10T03:44:29;1.70;;;1.60;;
18217;SDS011;9234;49.344;11.120;2023-05-10T03:46:57;1.40;;;1.27;;
18217;SDS011;9234;49.344;11.120;2023-05-10T03:49:26;1.45;;;1.20;;
18217;SDS011;9234;49.344;11.120;2023-05-10T03:51:54;1.38;;;1.27;;
18217;SDS011;9234;49.344;11.120;2023-05-10T03:54:23;1.58;;;1.42;;
18217;SDS011;9234;49.344;11.120;2023-05-10T03:56:52;1.00;;;1.00;;
18217;SDS011;9234;49.344;11.120;2023-05-10T03:59:21;1.83;;;1.27;;
18217;SDS011;9234;49.344;11.120;2023-05-10T04:01:50;1.33;;;1.10;;
18217;SDS011;9234;49.344;11.120;2023-05-10T04:04:19;1.02;;;0.88;;
18217;SDS011;9234;49.344;11.120;2023-05-10T04:06:48;1.10;;;1.08;;
18217;SDS011;9234;49.344;11.120;2023-05-10T04:09:18;0.70;;;0.70;;
18217;SDS011;9234;49.344;11.120;2023-05-10T04:11:48;1.50;;;0.77;;
18217;SDS011;9234;49.344;11.120;2023-05-10T04:14:16;2.22;;;0.70;;
18217;SDS011;9234;49.344;11.120;2023-05-10T04:16:44;1.52;;;0.80;;
18217;SDS011;9234;49.344;11.120;2023-05-10T04:19:12;0.77;;;0.77;;
18217;SDS011;9234;49.344;11.120;2023-05-10T04:21:40;2.78;;;0.68;;
18217;SDS011;9234;49.344;11.120;2023-05-10T04:24:09;0.60;;;0.57;;
18217;SDS011;9234;49.344;11.120;2023-05-10T04:26:38;1.80;;;0.60;;
18217;SDS011;9234;49.344;11.120;2023-05-10T04:29:08;0.30;;;0.30;;
18217;SDS011;9234;49.344;11.120;2023-05-10T04:31:36;0.75;;;0.50;;
18217;SDS011;9234;49.344;11.120;2023-05-10T04:34:04;0.50;;;0.50;;
18217;SDS011;9234;49.344;11.120;2023-05-10T04:36:32;0.35;;;0.30;;
18217;SDS011;9234;49.344;11.120;2023-05-10T04:39:02;0.40;;;0.40;;
18217;SDS011;9234;49.344;11.120;2023-05-10T04:41:30;0.57;;;0.40;;
18217;SDS011;9234;49.344;11.120;2023-05-10T04:43:59;5.00;;;0.63;;
18217;SDS011;9234;49.344;11.120;2023-05-10T04:46:28;1.95;;;0.30;;
18217;SDS011;9234;49.344;11.120;2023-05-10T04:48:56;1.40;;;0.40;;
18217;SDS011;9234;49.344;11.120;2023-05-10T04:51:24;0.43;;;0.30;;
18217;SDS011;9234;49.344;11.120;2023-05-10T04:53:52;0.38;;;0.28;;
18217;SDS011;9234;49.344;11.120;2023-05-10T04:56:31;0.38;;;0.30;;
18217;SDS011;9234;49.344;11.120;2023-05-10T04:59:00;0.40;;;0.40;;
18217;SDS011;9234;49.344;11.120;2023-05-10T05:01:30;0.40;;;0.40;;
18217;SDS011;9234;49.344;11.120;2023-05-10T05:03:58;0.75;;;0.50;;
18217;SDS011;9234;49.344;11.120;2023-05-10T05:06:26;0.70;;;0.50;;
18217;SDS011;9234;49.344;11.120;2023-05-10T05:08:54;0.43;;;0.43;;
18217;SDS011;9234;49.344;11.120;2023-05-10T05:11:23;1.58;;;0.30;;
18217;SDS011;9234;49.344;11.120;2023-05-10T05:13:51;0.40;;;0.32;;
18217;SDS011;9234;49.344;11.120;2023-05-10T05:16:19;0.50;;;0.30;;
18217;SDS011;9234;49.344;11.120;2023-05-10T05:18:49;0.60;;;0.47;;
18217;SDS011;9234;49.344;11.120;2023-05-10T05:21:17;0.22;;;0.17;;
18217;SDS011;9234;49.344;11.120;2023-05-10T05:23:47;0.60;;;0.40;;
18217;SDS011;9234;49.344;11.120;2023-05-10T05:26:15;0.82;;;0.43;;
18217;SDS011;9234;49.344;11.120;2023-05-10T05:28:43;0.82;;;0.30;;
18217;SDS011;9234;49.344;11.120;2023-05-10T05:31:12;0.68;;;0.40;;
18217;SDS011;9234;49.344;11.120;2023-05-10T05:33:40;0.93;;;0.45;;
18217;SDS011;9234;49.344;11.120;2023-05-10T05:36:09;0.40;;;0.40;;
18217;SDS011;9234;49.344;11.120;2023-05-10T05:38:38;0.57;;;0.45;;
18217;SDS011;9234;49.344;11.120;2023-05-10T05:41:06;0.40;;;0.40;;
18217;SDS011;9234;49.344;11.120;2023-05-10T05:43:34;1.05;;;0.30;;
18217;SDS011;9234;49.344;11.120;2023-05-10T05:46:04;0.52;;;0.50;;
18217;SDS011;9234;49.344;11.120;2023-05-10T05:48:32;0.50;;;0.40;;
18217;SDS011;9234;49.344;11.120;2023-05-10T05:51:00;0.30;;;0.30;;
18217;SDS011;9234;49.344;11.120;2023-05-10T05:53:33;0.32;;;0.32;;
18217;SDS011;9234;49.344;11.120;2023-05-10T05:56:01;0.50;;;0.38;;
18217;SDS011;9234;49.344;11.120;2023-05-10T05:58:30;0.85;;;0.43;;
18217;SDS011;9234;49.344;11.120;2023-05-10T06:00:58;1.65;;;0.50;;
18217;SDS011;9234;49.344;11.120;2023-05-10T06:03:27;0.82;;;0.38;;
18217;SDS011;9234;49.344;11.120;2023-05-10T06:05:55;0.43;;;0.43;;
18217;SDS011;9234;49.344;11.120;2023-05-10T06:08:23;1.35;;;0.63;;
18217;SDS011;9234;49.344;11.120;2023-05-10T06:10:53;2.33;;;0.70;;
18217;SDS011;9234;49.344;11.120;2023-05-10T06:13:21;3.60;;;0.50;;
18217;SDS011;9234;49.344;11.120;2023-05-10T06:15:49;1.20;;;0.98;;
18217;SDS011;9234;49.344;11.120;2023-05-10T06:18:17;0.88;;;0.80;;
18217;SDS011;9234;49.344;11.120;2023-05-10T06:20:46;0.82;;;0.70;;
18217;SDS011;9234;49.344;11.120;2023-05-10T06:23:14;0.77;;;0.77;;
18217;SDS011;9234;49.344;11.120;2023-05-10T06:25:42;1.08;;;0.98;;
18217;SDS011;9234;49.344;11.120;2023-05-10T06:28:11;3.17;;;0.70;;
18217;SDS011;9234;49.344;11.120;2023-05-10T06:30:40;0.70;;;0.70;;
18217;SDS011;9234;49.344;11.120;2023-05-10T06:33:08;0.65;;;0.65;;
18217;SDS011;9234;49.344;11.120;2023-05-10T06:35:36;1.48;;;0.75;;
18217;SDS011;9234;49.344;11.120;2023-05-10T06:38:05;1.38;;;1.00;;
18217;SDS011;9234;49.344;11.120;2023-05-10T06:40:33;1.98;;;0.75;;
18217;SDS011;9234;49.344;11.120;2023-05-10T06:43:02;1.88;;;0.85;;
18217;SDS011;9234;49.344;11.120;2023-05-10T06:45:31;0.90;;;0.90;;
18217;SDS011;9234;49.344;11.120;2023-05-10T06:47:59;1.48;;;0.90;;
18217;SDS011;9234;49.344;11.120;2023-05-10T06:50:28;5.72;;;1.70;;
18217;SDS011;9234;49.344;11.120;2023-05-10T06:52:56;0.73;;;0.73;;
18217;SDS011;9234;49.344;11.120;2023-05-10T06:55:24;1.85;;;0.82;;
18217;SDS011;9234;49.344;11.120;2023-05-10T06:57:52;1.17;;;1.10;;
18217;SDS011;9234;49.344;11.120;2023-05-10T07:00:21;1.13;;;0.88;;
18217;SDS011;9234;49.344;11.120;2023-05-10T07:02:51;1.35;;;0.68;;
18217;SDS011;9234;49.344;11.120;2023-05-10T07:05:19;2.78;;;0.70;;
18217;SDS011;9234;49.344;11.120;2023-05-10T07:07:47;0.70;;;0.70;;
18217;SDS011;9234;49.344;11.120;2023-05-10T07:10:16;1.00;;;0.60;;
18217;SDS011;9234;49.344;11.120;2023-05-10T07:12:44;1.48;;;0.90;;
18217;SDS011;9234;49.344;11.120;2023-05-10T07:15:12;1.08;;;0.90;;
18217;SDS011;9234;49.344;11.120;2023-05-10T07:17:42;1.50;;;0.80;;
18217;SDS011;9234;49.344;11.120;2023-05-10T07:20:13;0.90;;;0.90;;
18217;SDS011;9234;49.344;11.120;2023-05-10T07:22:41;0.90;;;0.90;;
18217;SDS011;9234;49.344;11.120;2023-05-10T07:25:10;1.08;;;1.00;;
18217;SDS011;9234;49.344;11.120;2023-05-10T07:27:38;0.70;;;0.70;;
18217;SDS011;9234;49.344;11.120;2023-05-10T07:30:07;0.60;;;0.60;;
18217;SDS011;9234;49.344;11.120;2023-05-10T07:32:36;1.77;;;0.73;;
18217;SDS011;9234;49.344;11.120;2023-05-10T07:35:05;0.95;;;0.90;;
18217;SDS011;9234;49.344;11.120;2023-05-10T07:37:36;1.77;;;1.00;;
18217;SDS011;9234;49.344;11.120;2023-05-10T07:40:05;1.15;;;0.80;;
18217;SDS011;9234;49.344;11.120;2023-05-10T07:42:34;1.00;;;1.00;;
18217;SDS011;9234;49.344;11.120;2023-05-10T07:45:03;1.70;;;0.70;;
18217;SDS011;9234;49.344;11.120;2023-05-10T07:47:32;1.40;;;0.90;;
18217;SDS011;9234;49.344;11.120;2023-05-10T07:50:01;1.40;;;1.00;;
18217;SDS011;9234;49.344;11.120;2023-05-10T07:52:29;2.08;;;1.20;;
18217;SDS011;9234;49.344;11.120;2023-05-10T07:54:58;0.75;;;0.75;;
18217;SDS011;9234;49.344;11.120;2023-05-10T07:57:26;4.00;;;1.08;;
18217;SDS011;9234;49.344;11.120;2023-05-10T07:59:55;1.35;;;1.08;;
18217;SDS011;9234;49.344;11.120;2023-05-10T08:02:23;1.05;;;0.70;;
18217;SDS011;9234;49.344;11.120;2023-05-10T08:04:51;2.25;;;1.20;;
18217;SDS011;9234;49.344;11.120;2023-05-10T08:07:19;0.80;;;0.80;;
18217;SDS011;9234;49.344;11.120;2023-05-10T08:09:47;0.70;;;0.70;;
18217;SDS011;9234;49.344;11.120;2023-05-10T08:12:17;0.70;;;0.70;;
18217;SDS011;9234;49.344;11.120;2023-05-10T08:14:45;0.70;;;0.70;;
18217;SDS011;9234;49.344;11.120;2023-05-10T08:17:13;1.75;;;1.10;;
18217;SDS011;9234;49.344;11.120;2023-05-10T08:19:43;1.23;;;0.70;;
18217;SDS011;9234;49.344;11.120;2023-05-10T08:22:12;1.20;;;1.10;;
18217;SDS011;9234;49.344;11.120;2023-05-10T08:24:40;1.70;;;0.80;;
18217;SDS011;9234;49.344;11.120;2023-05-10T08:27:08;2.05;;;0.98;;
18217;SDS011;9234;49.344;11.120;2023-05-10T08:29:38;0.93;;;0.93;;
18217;SDS011;9234;49.344;11.120;2023-05-10T08:32:15;1.10;;;1.10;;
18217;SDS011;9234;49.344;11.120;2023-05-10T08:34:44;1.20;;;0.82;;
18217;SDS011;9234;49.344;11.120;2023-05-10T08:37:12;0.80;;;0.80;;
18217;SDS011;9234;49.344;11.120;2023-05-10T08:39:40;3.20;;;1.10;;
18217;SDS011;9234;49.344;11.120;2023-05-10T08:42:08;0.93;;;0.93;;
18217;SDS011;9234;49.344;11.120;2023-05-10T08:44:38;3.00;;;1.30;;
18217;SDS011;9234;49.344;11.120;2023-05-10T08:47:07;1.38;;;1.05;;
18217;SDS011;9234;49.344;11.120;2023-05-10T08:49:38;0.90;;;0.90;;
18217;SDS011;9234;49.344;11.120;2023-05-10T08:52:08;1.30;;;1.00;;
18217;SDS011;9234;49.344;11.120;2023-05-10T08:54:40;1.10;;;1.00;;
18217;SDS011;9234;49.344;11.120;2023-05-10T08:57:10;1.00;;;0.90;;
18217;SDS011;9234;49.344;11.120;2023-05-10T08:59:39;1.00;;;0.90;;
18217;SDS011;9234;49.344;11.120;2023-05-10T09:02:08;4.35;;;1.50;;
18217;SDS011;9234;49.344;11.120;2023-05-10T09:04:43;1.25;;;1.15;;
18217;SDS011;9234;49.344;11.120;2023-05-10T09:07:12;1.95;;;1.42;;
18217;SDS011;9234;49.344;11.120;2023-05-10T09:09:40;2.17;;;1.20;;
18217;SDS011;9234;49.344;11.120;2023-05-10T09:12:09;1.50;;;1.40;;
18217;SDS011;9234;49.344;11.120;2023-05-10T09:14:39;1.75;;;1.35;;
18217;SDS011;9234;49.344;11.120;2023-05-10T09:17:08;1.65;;;1.27;;
18217;SDS011;9234;49.344;11.120;2023-05-10T09:19:37;1.80;;;1.20;;
18217;SDS011;9234;49.344;11.120;2023-05-10T09:22:05;1.20;;;1.10;;
18217;SDS011;9234;49.344;11.120;2023-05-10T09:24:34;1.33;;;1.13;;
18217;SDS011;9234;49.344;11.120;2023-05-10T09:27:03;1.10;;;1.00;;
18217;SDS011;9234;49.344;11.120;2023-05-10T09:29:40;1.70;;;1.20;;
18217;SDS011;9234;49.344;11.120;2023-05-10T09:32:11;1.02;;;0.95;;
18217;SDS011;9234;49.344;11.120;2023-05-10T09:34:41;3.58;;;1.10;;
18217;SDS011;9234;49.344;11.120;2023-05-10T09:37:11;1.33;;;1.23;;
18217;SDS011;9234;49.344;11.120;2023-05-10T09:39:39;1.25;;;1.10;;
18217;SDS011;9234;49.344;11.120;2023-05-10T09:42:08;1.13;;;1.02;;
18217;SDS011;9234;49.344;11.120;2023-05-10T09:44:37;3.60;;;1.25;;
18217;SDS011;9234;49.344;11.120;2023-05-10T09:47:10;2.50;;;1.25;;
18217;SDS011;9234;49.344;11.120;2023-05-10T09:49:48;2.53;;;0.93;;
18217;SDS011;9234;49.344;11.120;2023-05-10T09:52:17;2.17;;;1.13;;
18217;SDS011;9234;49.344;11.120;2023-05-10T09:54:45;2.13;;;0.80;;
18217;SDS011;9234;49.344;11.120;2023-05-10T09:57:21;3.17;;;1.23;;
18217;SDS011;9234;49.344;11.120;2023-05-10T09:59:52;1.40;;;1.08;;
18217;SDS011;9234;49.344;11.120;2023-05-10T10:02:21;1.70;;;0.88;;
18217;SDS011;9234;49.344;11.120;2023-05-10T10:04:56;0.88;;;0.63;;
18217;SDS011;9234;49.344;11.120;2023-05-10T10:07:25;1.67;;;0.68;;
18217;SDS011;9234;49.344;11.120;2023-05-10T10:09:54;0.60;;;0.60;;
18217;SDS011;9234;49.344;11.120;2023-05-10T10:12:23;1.70;;;0.80;;
18217;SDS011;9234;49.344;11.120;2023-05-10T10:14:53;1.15;;;1.05;;
18217;SDS011;9234;49.344;11.120;2023-05-10T10:17:23;2.50;;;1.23;;
18217;SDS011;9234;49.344;11.120;2023-05-10T10:19:55;4.55;;;1.48;;
18217;SDS011;9234;49.344;11.120;2023-05-10T10:22:25;2.22;;;0.95;;
18217;SDS011;9234;49.344;11.120;2023-05-10T10:24:53;2.10;;;0.65;;
18217;SDS011;9234;49.344;11.120;2023-05-10T10:27:23;0.85;;;0.73;;
18217;SDS011;9234;49.344;11.120;2023-05-10T10:30:06;2.03;;;0.73;;
18217;SDS011;9234;49.344;11.120;2023-05-10T10:32:59;2.25;;;1.13;;
18217;SDS011;9234;49.344;11.120;2023-05-10T10:35:53;1.00;;;0.65;;
18217;SDS011;9234;49.344;11.120;2023-05-10T10:38:25;0.93;;;0.60;;
18217;SDS011;9234;49.344;11.120;2023-05-10T10:41:04;1.50;;;0.73;;
18217;SDS011;9234;49.344;11.120;2023-05-10T10:43:38;4.43;;;1.00;;
18217;SDS011;9234;49.344;11.120;2023-05-10T10:46:11;0.63;;;0.63;;
18217;SDS011;9234;49.344;11.120;2023-05-10T10:48:41;1.70;;;1.00;;
18217;SDS011;9234;49.344;11.120;2023-05-10T10:51:14;1.88;;;1.35;;
18217;SDS011;9234;49.344;11.120;2023-05-10T10:53:43;2.60;;;1.10;;
18217;SDS011;9234;49.344;11.120;2023-05-10T10:56:11;1.40;;;0.90;;
18217;SDS011;9234;49.344;11.120;2023-05-10T10:58:42;1.33;;;1.23;;
18217;SDS011;9234;49.344;11.120;2023-05-10T11:01:19;0.77;;;0.77;;
18217;SDS011;9234;49.344;11.120;2023-05-10T11:06:45;2.15;;;1.02;;
18217;SDS011;9234;49.344;11.120;2023-05-10T11:09:13;1.98;;;0.93;;
18217;SDS011;9234;49.344;11.120;2023-05-10T11:11:48;0.90;;;0.90;;
18217;SDS011;9234;49.344;11.120;2023-05-10T11:14:21;2.28;;;1.10;;
18217;SDS011;9234;49.344;11.120;2023-05-10T11:16:51;1.45;;;0.90;;
18217;SDS011;9234;49.344;11.120;2023-05-10T11:19:19;2.05;;;1.00;;
18217;SDS011;9234;49.344;11.120;2023-05-10T11:21:49;0.93;;;0.90;;
18217;SDS011;9234;49.344;11.120;2023-05-10T11:24:21;1.48;;;1.02;;
18217;SDS011;9234;49.344;11.120;2023-05-10T11:26:54;3.72;;;1.00;;
18217;SDS011;9234;49.344;11.120;2023-05-10T11:29:23;4.22;;;1.00;;
18217;SDS011;9234;49.344;11.120;2023-05-10T11:31:56;1.02;;;0.98;;
18217;SDS011;9234;49.344;11.120;2023-05-10T11:34:26;1.23;;;1.13;;
18217;SDS011;9234;49.344;11.120;2023-05-10T11:36:57;1.85;;;1.27;;
18217;SDS011;9234;49.344;11.120;2023-05-10T11:39:25;3.28;;;1.40;;
18217;SDS011;9234;49.344;11.120;2023-05-10T11:41:55;3.20;;;1.67;;
18217;SDS011;9234;49.344;11.120;2023-05-10T11:44:28;1.17;;;1.08;;
18217;SDS011;9234;49.344;11.120;2023-05-10T11:46:59;2.45;;;1.50;;
18217;SDS011;9234;49.344;11.120;2023-05-10T11:49:28;1.75;;;1.65;;
18217;SDS011;9234;49.344;11.120;2023-05-10T11:52:03;1.60;;;1.45;;
18217;SDS011;9234;49.344;11.120;2023-05-10T11:54:32;3.35;;;1.05;;
18217;SDS011;9234;49.344;11.120;2023-05-10T11:57:02;1.20;;;1.10;;
18217;SDS011;9234;49.344;11.120;2023-05-10T11:59:31;1.10;;;0.98;;
18217;SDS011;9234;49.344;11.120;2023-05-10T12:02:00;1.10;;;1.00;;
18217;SDS011;9234;49.344;11.120;2023-05-10T12:04:29;2.75;;;1.10;;
18217;SDS011;9234;49.344;11.120;2023-05-10T12:06:58;1.33;;;0.88;;
18217;SDS011;9234;49.344;11.120;2023-05-10T12:09:27;1.20;;;1.10;;
18217;SDS011;9234;49.344;11.120;2023-05-10T12:12:09;1.85;;;0.80;;
18217;SDS011;9234;49.344;11.120;2023-05-10T12:14:37;0.80;;;0.80;;
18217;SDS011;9234;49.344;11.120;2023-05-10T12:17:07;1.08;;;0.95;;
18217;SDS011;9234;49.344;11.120;2023-05-10T12:22:09;0.60;;;0.60;;
18217;SDS011;9234;49.344;11.120;2023-05-10T12:24:38;1.52;;;0.70;;
18217;SDS011;9234;49.344;11.120;2023-05-10T12:27:07;1.15;;;0.90;;
18217;SDS011;9234;49.344;11.120;2023-05-10T12:29:41;0.77;;;0.55;;
18217;SDS011;9234;49.344;11.120;2023-05-10T12:32:12;0.63;;;0.40;;
18217;SDS011;9234;49.344;11.120;2023-05-10T12:34:40;1.20;;;0.43;;
18217;SDS011;9234;49.344;11.120;2023-05-10T12:37:08;0.30;;;0.30;;
18217;SDS011;9234;49.344;11.120;2023-05-10T12:39:38;0.90;;;0.50;;
18217;SDS011;9234;49.344;11.120;2023-05-10T12:42:08;0.85;;;0.52;;
18217;SDS011;9234;49.344;11.120;2023-05-10T12:44:37;0.25;;;0.25;;
18217;SDS011;9234;49.344;11.120;2023-05-10T12:47:07;1.35;;;0.60;;
18217;SDS011;9234;49.344;11.120;2023-05-10T12:49:36;2.25;;;0.82;;
18217;SDS011;9234;49.344;11.120;2023-05-10T12:52:05;2.72;;;0.80;;
18217;SDS011;9234;49.344;11.120;2023-05-10T12:54:33;1.02;;;1.02;;
18217;SDS011;9234;49.344;11.120;2023-05-10T12:57:02;1.15;;;1.00;;
18217;SDS011;9234;49.344;11.120;2023-05-10T12:59:30;1.02;;;0.75;;
18217;SDS011;9234;49.344;11.120;2023-05-10T13:02:00;0.47;;;0.47;;
18217;SDS011;9234;49.344;11.120;2023-05-10T13:04:28;2.08;;;0.55;;
18217;SDS011;9234;49.344;11.120;2023-05-10T13:06:58;1.50;;;0.57;;
18217;SDS011;9234;49.344;11.120;2023-05-10T13:09:26;0.50;;;0.50;;
18217;SDS011;9234;49.344;11.120;2023-05-10T13:11:55;0.70;;;0.60;;
18217;SDS011;9234;49.344;11.120;2023-05-10T13:14:24;0.70;;;0.60;;
18217;SDS011;9234;49.344;11.120;2023-05-10T13:16:52;2.75;;;0.60;;
18217;SDS011;9234;49.344;11.120;2023-05-10T13:19:21;0.70;;;0.65;;
18217;SDS011;9234;49.344;11.120;2023-05-10T13:21:49;0.80;;;0.80;;
18217;SDS011;9234;49.344;11.120;2023-05-10T13:24:19;2.13;;;0.70;;
18217;SDS011;9234;49.344;11.120;2023-05-10T13:26:47;2.05;;;0.45;;
18217;SDS011;9234;49.344;11.120;2023-05-10T13:29:15;1.20;;;0.77;;
18217;SDS011;9234;49.344;11.120;2023-05-10T13:31:44;1.27;;;0.80;;
18217;SDS011;9234;49.344;11.120;2023-05-10T13:34:13;0.80;;;0.80;;
18217;SDS011;9234;49.344;11.120;2023-05-10T13:36:41;3.42;;;1.05;;
18217;SDS011;9234;49.344;11.120;2023-05-10T13:39:10;0.95;;;0.88;;
18217;SDS011;9234;49.344;11.120;2023-05-10T13:41:39;2.10;;;0.80;;
18217;SDS011;9234;49.344;11.120;2023-05-10T13:44:08;1.00;;;1.00;;
18217;SDS011;9234;49.344;11.120;2023-05-10T13:46:41;1.52;;;1.25;;
18217;SDS011;9234;49.344;11.120;2023-05-10T13:49:09;2.28;;;0.90;;
18217;SDS011;9234;49.344;11.120;2023-05-10T13:51:37;1.83;;;1.00;;
18217;SDS011;9234;49.344;11.120;2023-05-10T13:54:06;0.75;;;0.75;;
18217;SDS011;9234;49.344;11.120;2023-05-10T13:56:35;1.50;;;1.40;;
18217;SDS011;9234;49.344;11.120;2023-05-10T13:59:05;3.00;;;1.48;;
18217;SDS011;9234;49.344;11.120;2023-05-10T14:01:33;1.63;;;1.35;;
18217;SDS011;9234;49.344;11.120;2023-05-10T14:04:05;3.05;;;1.35;;
18217;SDS011;9234;49.344;11.120;2023-05-10T14:06:36;2.65;;;1.10;;
18217;SDS011;9234;49.344;11.120;2023-05-10T14:09:05;1.23;;;1.13;;
18217;SDS011;9234;49.344;11.120;2023-05-10T14:11:33;1.08;;;0.98;;
18217;SDS011;9234;49.344;11.120;2023-05-10T14:14:01;1.17;;;0.93;;
18217;SDS011;9234;49.344;11.120;2023-05-10T14:16:31;1.10;;;0.63;;
18217;SDS011;9234;49.344;11.120;2023-05-10T14:19:00;2.25;;;0.63;;
18217;SDS011;9234;49.344;11.120;2023-05-10T14:21:31;1.27;;;0.70;;
18217;SDS011;9234;49.344;11.120;2023-05-10T14:23:59;0.93;;;0.52;;
18217;SDS011;9234;49.344;11.120;2023-05-10T14:26:28;0.50;;;0.40;;
18217;SDS011;9234;49.344;11.120;2023-05-10T14:28:57;0.98;;;0.52;;
18217;SDS011;9234;49.344;11.120;2023-05-10T14:31:26;1.15;;;0.30;;
18217;SDS011;9234;49.344;11.120;2023-05-10T14:33:57;1.67;;;0.57;;
18217;SDS011;9234;49.344;11.120;2023-05-10T14:36:26;1.38;;;0.52;;
18217;SDS011;9234;49.344;11.120;2023-05-10T14:38:55;1.17;;;0.65;;
18217;SDS011;9234;49.344;11.120;2023-05-10T14:41:23;0.60;;;0.60;;
18217;SDS011;9234;49.344;11.120;2023-05-10T14:43:51;0.80;;;0.80;;
18217;SDS011;9234;49.344;11.120;2023-05-10T14:46:21;0.93;;;0.70;;
18217;SDS011;9234;49.344;11.120;2023-05-10T14:48:49;1.20;;;0.60;;
18217;SDS011;9234;49.344;11.120;2023-05-10T14:51:19;1.35;;;0.73;;
18217;SDS011;9234;49.344;11.120;2023-05-10T14:53:48;1.00;;;0.88;;
18217;SDS011;9234;49.344;11.120;2023-05-10T14:56:16;0.63;;;0.63;;
18217;SDS011;9234;49.344;11.120;2023-05-10T14:58:49;1.63;;;0.70;;
18217;SDS011;9234;49.344;11.120;2023-05-10T15:01:19;1.55;;;0.80;;
18217;SDS011;9234;49.344;11.120;2023-05-10T15:03:48;1.20;;;0.70;;
18217;SDS011;9234;49.344;11.120;2023-05-10T15:06:22;2.30;;;1.08;;
18217;SDS011;9234;49.344;11.120;2023-05-10T15:08:52;9.93;;;2.47;;
18217;SDS011;9234;49.344;11.120;2023-05-10T15:11:20;3.15;;;1.00;;
18217;SDS011;9234;49.344;11.120;2023-05-10T15:13:48;2.55;;;0.90;;
18217;SDS011;9234;49.344;11.120;2023-05-10T15:16:16;1.27;;;1.02;;